Time;durP1;ratioP1;P1;durP2;ratioP2;P2;SDS_P1;SDS_P2;PMS_P1;PMS_P2;Temp;Humidity;BMP_temperature;BMP_pressure;BME280_temperature;BME280_humidity;BME280_pressure;Samples;Min_cycle;Max_cycle;Signal;HPM_P1;HPM_P2
2021/12/15 00:00:42;;;;;;;60.67;31.27;;;;;;;-0.05;100.00;101159.84;6298763;28;20049;-72
2021/12/15 00:03:43;;;;;;;58.03;28.58;;;;;;;-0.07;100.00;101156.44;6300025;28;20454;-73
2021/12/15 00:06:44;;;;;;;61.78;28.30;;;;;;;-0.14;98.70;101162.44;6298876;28;20059;-72
2021/12/15 00:09:45;;;;;;;61.22;29.90;;;;;;;-0.18;98.36;101165.00;6298764;28;20037;-72
2021/12/15 00:12:47;;;;;;;70.32;31.83;;;;;;;-0.26;100.00;101162.41;6300055;28;20049;-72
2021/12/15 00:15:48;;;;;;;69.22;32.35;;;;;;;-0.22;100.00;101170.09;6299856;28;20037;-72
2021/12/15 00:18:49;;;;;;;67.38;32.22;;;;;;;-0.25;100.00;101170.13;6300003;28;20048;-72
2021/12/15 00:21:50;;;;;;;62.17;32.15;;;;;;;-0.32;100.00;101178.66;6299751;28;20087;-72
2021/12/15 00:24:51;;;;;;;59.78;29.08;;;;;;;-0.32;100.00;101172.66;6298676;28;20085;-72
2021/12/15 00:27:52;;;;;;;57.65;28.25;;;;;;;-0.44;100.00;101182.03;6281693;28;20475;-72
2021/12/15 00:30:53;;;;;;;52.90;28.27;;;;;;;-0.61;100.00;101187.13;6299327;28;20051;-71
2021/12/15 00:33:54;;;;;;;59.45;28.13;;;;;;;-0.58;100.00;101188.84;6281550;28;20045;-72
2021/12/15 00:36:55;;;;;;;58.70;28.33;;;;;;;-0.63;100.00;101176.00;6298093;28;20106;-72
2021/12/15 00:39:55;;;;;;;56.80;26.23;;;;;;;-0.55;100.00;101168.34;6298233;28;20467;-72
2021/12/15 00:42:58;;;;;;;44.58;24.10;;;;;;;-0.54;100.00;101170.03;6299111;28;20054;-72
2021/12/15 00:45:59;;;;;;;50.17;25.63;;;;;;;-0.58;100.00;101167.47;6299114;28;20094;-72
2021/12/15 00:49:00;;;;;;;55.03;25.75;;;;;;;-0.62;100.00;101164.03;6298857;28;20040;-72
2021/12/15 00:52:01;;;;;;;45.85;21.92;;;;;;;-0.55;100.00;101170.91;6280621;28;20044;-72
2021/12/15 00:55:03;;;;;;;53.17;23.75;;;;;;;-0.38;100.00;101181.19;6296843;28;20579;-72
2021/12/15 00:58:06;;;;;;;42.10;20.40;;;;;;;-0.22;100.00;101169.25;6298377;28;20045;-72
2021/12/15 01:01:06;;;;;;;38.22;19.63;;;;;;;-0.22;100.00;101174.41;6298000;28;20059;-72
2021/12/15 01:04:11;;;;;;;43.25;20.77;;;;;;;-0.14;100.00;101172.69;6298664;28;20044;-73
2021/12/15 01:07:12;;;;;;;34.45;16.70;;;;;;;-0.10;100.00;101182.09;6298475;28;20064;-72
2021/12/15 01:10:20;;;;;;;38.28;19.17;;;;;;;-0.07;100.00;101174.38;6298665;28;20044;-72
2021/12/15 01:20:09;;;;;;;41.25;18.08;;;;;;;0.05;100.00;101158.16;6298178;28;20040;-73
2021/12/15 01:23:14;;;;;;;45.72;19.23;;;;;;;0.04;100.00;101165.84;6298359;28;20045;-72
2021/12/15 01:26:16;;;;;;;34.85;16.98;;;;;;;-0.17;100.00;101166.69;6298137;28;20597;-72
2021/12/15 01:29:17;;;;;;;27.07;15.80;;;;;;;-0.03;100.00;101172.69;6280442;28;20051;-72
2021/12/15 01:32:18;;;;;;;33.50;16.25;;;;;;;0.04;100.00;101165.84;6297957;28;20044;-72
2021/12/15 01:35:20;;;;;;;31.40;15.93;;;;;;;0.07;100.00;101171.00;6297784;28;20044;-72
2021/12/15 01:38:26;;;;;;;32.97;15.93;;;;;;;0.15;100.00;101171.84;6280557;28;20049;-72
2021/12/15 01:41:27;;;;;;;32.53;17.45;;;;;;;0.18;100.00;101164.97;6297761;28;20078;-72
2021/12/15 01:47:28;;;;;;;32.95;16.42;;;;;;;0.28;100.00;101153.00;6296458;28;20048;-72
2021/12/15 01:50:29;;;;;;;32.22;16.63;;;;;;;0.23;100.00;101154.72;6280112;28;20689;-72
2021/12/15 01:53:31;;;;;;;31.83;16.20;;;;;;;0.31;100.00;101154.69;6297554;28;20097;-72
2021/12/15 01:56:33;;;;;;;33.37;17.80;;;;;;;0.05;100.00;101152.16;6297532;28;20098;-72
2021/12/15 01:59:34;;;;;;;32.50;17.40;;;;;;;0.01;100.00;101145.34;6297483;28;20281;-72
2021/12/15 02:02:35;;;;;;;35.70;17.63;;;;;;;0.14;100.00;101154.72;6296116;28;20673;-72
2021/12/15 02:05:36;;;;;;;34.80;17.15;;;;;;;0.14;100.00;101155.56;6297382;28;20052;-72
2021/12/15 02:08:39;;;;;;;31.77;16.42;;;;;;;0.32;100.00;101157.28;6297411;28;20048;-72
2021/12/15 02:11:40;;;;;;;31.58;17.00;;;;;;;0.43;100.00;101153.84;6296216;28;20032;-72
2021/12/15 02:14:41;;;;;;;32.67;17.02;;;;;;;0.33;100.00;101151.28;6295905;28;20048;-72
2021/12/15 02:17:42;;;;;;;32.38;17.13;;;;;;;0.30;100.00;101165.84;6297073;28;20101;-72
2021/12/15 02:20:53;;;;;;;32.60;16.15;;;;;;;0.44;100.00;101156.41;6295910;28;20407;-72
2021/12/15 02:23:57;;;;;;;30.58;16.38;;;;;;;0.49;100.00;101151.25;6295654;28;20453;-72
2021/12/15 02:27:00;;;;;;;38.40;17.83;;;;;;;0.62;100.00;101157.22;6295163;28;20050;-72
2021/12/15 02:30:18;;;;;;;29.95;16.33;;;;;;;0.65;100.00;101164.94;6296474;28;20091;-72
2021/12/15 02:33:54;;;;;;;30.95;16.65;;;;;;;0.65;100.00;101163.22;6296852;28;20051;-72
2021/12/15 02:40:10;;;;;;;55.72;24.38;;;;;;;0.64;100.00;101164.09;6296323;28;20063;-72
2021/12/15 02:43:12;;;;;;;50.20;23.52;;;;;;;0.62;100.00;101165.78;6294811;28;20516;-72
2021/12/15 02:46:12;;;;;;;56.93;24.47;;;;;;;0.63;100.00;101164.91;6296276;28;20052;-72
2021/12/15 02:49:16;;;;;;;44.78;24.50;;;;;;;0.63;100.00;101161.50;6294907;28;20043;-72
2021/12/15 02:52:17;;;;;;;49.63;23.08;;;;;;;0.65;100.00;101154.66;6295894;28;20553;-72
2021/12/15 02:55:18;;;;;;;50.58;26.52;;;;;;;0.57;100.00;101158.06;6294829;28;20040;-73
2021/12/15 02:58:21;;;;;;;52.08;26.45;;;;;;;0.48;100.00;101168.38;6299362;28;20356;-72
2021/12/15 03:01:34;;;;;;;58.55;27.15;;;;;;;0.50;100.00;101156.41;6299943;28;20479;-72
2021/12/15 03:04:41;;;;;;;52.53;25.50;;;;;;;0.52;100.00;101158.97;6301421;28;20078;-72
2021/12/15 03:07:56;;;;;;;51.42;26.27;;;;;;;0.50;100.00;101156.41;6301512;28;20464;-72
2021/12/15 03:17:36;;;;;;;47.80;25.10;;;;;;;0.59;100.00;101156.34;6299505;28;20123;-72
2021/12/15 03:20:48;;;;;;;48.97;25.50;;;;;;;0.60;100.00;101170.94;6299641;28;20054;-72
2021/12/15 03:23:55;;;;;;;44.60;24.77;;;;;;;0.58;100.00;101164.94;6300376;28;20049;-72
2021/12/15 03:27:14;;;;;;;45.53;25.45;;;;;;;0.46;100.00;101174.38;6300870;28;20041;-72
2021/12/15 03:40:09;;;;;;;58.35;29.23;;;;;;;0.56;100.00;101169.22;6299354;28;20091;-72
2021/12/15 03:43:15;;;;;;;58.15;30.45;;;;;;;0.59;100.00;101163.22;6299303;28;20049;-72
2021/12/15 03:46:16;;;;;;;60.78;28.77;;;;;;;0.66;100.00;101158.91;6300411;28;20403;-72
2021/12/15 03:49:18;;;;;;;60.08;29.95;;;;;;;0.60;100.00;101158.09;6300384;28;20529;-72
2021/12/15 03:52:18;;;;;;;57.87;27.30;;;;;;;0.56;100.00;101156.38;6300411;28;20102;-72
2021/12/15 03:55:27;;;;;;;49.15;26.10;;;;;;;0.49;100.00;101156.41;6281969;28;20293;-72
2021/12/15 03:58:28;;;;;;;54.33;25.90;;;;;;;0.49;100.00;101148.69;6299528;28;20048;-72
2021/12/15 04:01:28;;;;;;;57.45;27.40;;;;;;;0.44;100.00;101143.56;6299880;28;20044;-73
2021/12/15 04:04:29;;;;;;;53.63;25.55;;;;;;;0.45;100.00;101142.69;6300060;28;20117;-73
2021/12/15 04:07:30;;;;;;;43.90;23.75;;;;;;;0.35;100.00;101171.81;6299676;28;20045;-72
2021/12/15 04:10:31;;;;;;;44.13;23.35;;;;;;;0.48;100.00;101155.53;6300176;28;20467;-72
2021/12/15 04:13:32;;;;;;;42.70;20.90;;;;;;;0.52;100.00;101162.38;6298697;28;20055;-72
2021/12/15 04:19:36;;;;;;;38.67;20.92;;;;;;;0.57;100.00;101162.38;6299895;28;20053;-72
2021/12/15 04:22:37;;;;;;;31.92;18.90;;;;;;;0.59;100.00;101161.50;6300037;28;20407;-72
2021/12/15 04:25:40;;;;;;;35.60;19.00;;;;;;;0.60;100.00;101165.78;6299527;28;20048;-72
2021/12/15 04:28:41;;;;;;;35.60;19.05;;;;;;;0.63;100.00;101171.78;6298610;28;20049;-73
2021/12/15 04:32:01;;;;;;;35.65;18.52;;;;;;;0.54;100.00;101178.66;6299484;28;20049;-72
2021/12/15 04:35:02;;;;;;;32.08;18.38;;;;;;;0.48;100.00;101170.94;6299106;28;20097;-72
2021/12/15 04:38:04;;;;;;;33.60;17.52;;;;;;;0.55;100.00;101182.06;6299411;28;20064;-72
2021/12/15 04:41:11;;;;;;;33.70;16.50;;;;;;;0.51;100.00;101176.06;6298140;28;20064;-72
2021/12/15 04:44:13;;;;;;;32.00;16.77;;;;;;;0.54;100.00;101186.34;6298020;28;20098;-72
2021/12/15 04:47:14;;;;;;;38.65;19.08;;;;;;;0.53;100.00;101202.59;6299155;28;20055;-73
2021/12/15 04:50:15;;;;;;;142.18;45.92;;;;;;;0.51;100.00;101204.31;6297975;28;20090;-72
2021/12/15 04:53:16;;;;;;;87.53;34.88;;;;;;;0.55;100.00;101216.31;6281174;28;20041;-72
2021/12/15 04:56:16;;;;;;;56.95;25.55;;;;;;;0.47;100.00;101199.19;6298829;28;20082;-72
2021/12/15 04:59:17;;;;;;;49.03;24.67;;;;;;;0.43;100.00;101203.47;6280458;28;20044;-73
2021/12/15 05:02:20;;;;;;;49.55;23.92;;;;;;;0.46;100.00;101205.22;6296879;28;20047;-72
2021/12/15 05:05:22;;;;;;;;;;;;;;;0.56;100.00;101201.78;6264589;28;20681;-73
2021/12/15 05:08:22;;;;;;;45.85;25.33;;;;;;;0.52;100.00;101208.63;6297185;28;19932;-73
2021/12/15 05:11:24;;;;;;;51.05;26.15;;;;;;;0.51;100.00;101217.16;6298562;28;20056;-73
2021/12/15 05:14:26;;;;;;;52.25;25.27;;;;;;;0.52;100.00;101226.59;6296887;28;20086;-72
2021/12/15 05:17:27;;;;;;;49.42;25.20;;;;;;;0.52;100.00;101213.75;6297984;28;20044;-73
2021/12/15 05:20:28;;;;;;;48.75;24.40;;;;;;;0.57;100.00;101211.16;6297543;28;20082;-73
2021/12/15 05:23:31;;;;;;;45.13;23.85;;;;;;;0.58;100.00;101216.31;6264076;28;20127;-73
2021/12/15 05:26:32;;;;;;;44.50;23.35;;;;;;;0.47;100.00;101217.16;6280350;28;20091;-72
2021/12/15 05:29:33;;;;;;;42.35;22.98;;;;;;;0.55;100.00;101218.03;6298190;28;20044;-73
2021/12/15 05:32:34;;;;;;;54.00;25.80;;;;;;;0.63;100.00;101226.56;6297875;28;20406;-73
2021/12/15 05:35:36;;;;;;;47.92;24.58;;;;;;;0.59;100.00;101228.28;6296182;28;20059;-73
2021/12/15 05:38:37;;;;;;;53.40;24.98;;;;;;;0.62;100.00;101216.28;6297540;28;20043;-73
2021/12/15 05:41:38;;;;;;;60.08;29.88;;;;;;;0.57;100.00;101222.28;6296278;28;20041;-73
2021/12/15 05:44:39;;;;;;;57.88;27.15;;;;;;;0.60;100.00;101224.88;6296428;28;20493;-73
2021/12/15 05:47:43;;;;;;;59.33;28.00;;;;;;;0.64;100.00;101214.56;6296493;28;20155;-73
2021/12/15 05:50:47;;;;;;;54.22;30.40;;;;;;;0.70;100.00;101209.44;6297413;28;20040;-73
2021/12/15 05:53:48;;;;;;;58.38;29.92;;;;;;;0.69;100.00;101205.16;6297430;28;20486;-73
2021/12/15 05:56:49;;;;;;;62.80;28.73;;;;;;;0.72;100.00;101206.03;6296776;28;20040;-72
2021/12/15 05:59:50;;;;;;;58.92;30.55;;;;;;;0.80;100.00;101203.41;6295591;28;20067;-72
2021/12/15 06:02:51;;;;;;;53.58;28.90;;;;;;;0.77;100.00;101208.56;6297285;28;20399;-72
2021/12/15 06:05:52;;;;;;;61.83;32.28;;;;;;;0.71;100.00;101217.13;6297096;28;20049;-73
2021/12/15 06:08:53;;;;;;;60.58;29.77;;;;;;;0.63;100.00;101224.00;6279539;28;20509;-73
2021/12/15 06:11:54;;;;;;;77.80;39.55;;;;;;;0.65;100.00;101234.28;6296882;28;20047;-73
2021/12/15 06:14:55;;;;;;;81.05;39.08;;;;;;;0.63;100.00;101230.88;6295277;28;20041;-73
2021/12/15 06:18:00;;;;;;;108.07;47.17;;;;;;;0.64;100.00;101241.16;6296738;28;20049;-72
2021/12/15 06:21:01;;;;;;;130.70;54.95;;;;;;;0.64;100.00;101253.09;6297349;28;20040;-71
2021/12/15 06:24:02;;;;;;;121.50;47.85;;;;;;;0.64;100.00;101254.00;6279228;28;20045;-72
2021/12/15 06:27:10;;;;;;;108.93;46.28;;;;;;;0.70;100.00;101256.56;6295790;28;20082;-72
2021/12/15 06:30:11;;;;;;;65.70;32.15;;;;;;;0.68;100.00;101270.22;6297048;28;20064;-72
2021/12/15 06:33:14;;;;;;;55.25;29.08;;;;;;;0.69;100.00;101269.38;6296827;28;20083;-72
2021/12/15 06:36:20;;;;;;;55.88;28.98;;;;;;;0.69;100.00;101272.81;6295441;28;20057;-72
2021/12/15 06:39:21;;;;;;;59.45;29.75;;;;;;;0.76;100.00;101271.09;6296978;28;20041;-72
2021/12/15 06:42:22;;;;;;;58.22;28.70;;;;;;;0.70;100.00;101268.50;6290248;28;20045;-72
2021/12/15 06:45:30;;;;;;;67.00;29.58;;;;;;;0.57;100.00;101265.09;6261047;28;20053;-72
2021/12/15 06:58:40;;;;;;;174.73;80.35;;;;;;;1.03;100.00;101267.63;6272538;28;20052;-72
2021/12/15 07:01:40;;;;;;;145.70;68.60;;;;;;;1.07;100.00;101271.91;6294506;28;20082;-72
2021/12/15 07:04:41;;;;;;;103.75;48.13;;;;;;;1.04;100.00;101271.06;6295714;28;20395;-72
2021/12/15 07:07:45;;;;;;;77.72;39.63;;;;;;;0.91;100.00;101272.78;6294422;28;20128;-73
2021/12/15 07:10:49;;;;;;;83.88;43.60;;;;;;;0.88;100.00;101288.19;6294421;28;20037;-73
2021/12/15 07:13:50;;;;;;;100.68;44.95;;;;;;;0.89;100.00;101283.06;6295621;28;20124;-73
2021/12/15 07:16:54;;;;;;;239.18;75.05;;;;;;;0.94;100.00;101285.63;6295184;28;20037;-72
2021/12/15 07:23:04;;;;;;;89.75;38.22;;;;;;;1.32;100.00;101293.25;6295394;28;20476;-74
2021/12/15 07:26:05;;;;;;;76.97;36.10;;;;;;;1.56;100.00;101292.28;6295329;28;20051;-72
2021/12/15 07:29:06;;;;;;;61.85;30.50;;;;;;;1.66;98.95;101287.97;6294125;28;20045;-72
2021/12/15 07:32:07;;;;;;;68.13;32.35;;;;;;;1.70;98.73;101304.25;6295362;28;20040;-72
2021/12/15 07:35:10;;;;;;;61.72;33.22;;;;;;;1.75;99.31;101307.66;6294882;28;20137;-72
2021/12/15 07:38:11;;;;;;;63.30;33.33;;;;;;;1.72;100.00;101299.97;6294138;28;20398;-72
2021/12/15 07:41:29;;;;;;;67.78;36.30;;;;;;;1.74;100.00;101309.38;6277332;28;20041;-73
2021/12/15 07:44:30;;;;;;;64.57;34.75;;;;;;;1.93;99.66;101314.44;6298449;28;20399;-73
2021/12/15 07:47:34;;;;;;;63.53;36.07;;;;;;;2.11;97.42;101314.34;6298294;28;20340;-73
2021/12/15 07:50:36;;;;;;;64.05;32.13;;;;;;;1.97;96.78;101314.41;6299613;28;20044;-73
2021/12/15 07:53:39;;;;;;;63.47;32.25;;;;;;;1.90;98.16;101317.88;6281858;28;20033;-73
2021/12/15 07:56:42;;;;;;;59.33;30.48;;;;;;;1.97;97.92;101321.28;6298134;28;20122;-72
2021/12/15 07:59:43;;;;;;;57.92;31.30;;;;;;;2.13;96.58;101317.75;6298240;28;20037;-72
2021/12/15 08:02:43;;;;;;;57.78;31.90;;;;;;;2.19;96.46;101322.88;6298025;28;20118;-72
2021/12/15 08:05:47;;;;;;;61.20;31.27;;;;;;;2.30;95.43;101338.25;6299183;28;20053;-73
2021/12/15 08:08:48;;;;;;;68.28;32.60;;;;;;;1.93;97.85;101335.88;6299590;28;20043;-72
2021/12/15 08:11:50;;;;;;;64.63;32.13;;;;;;;1.99;99.40;101319.56;6297913;28;20033;-73
2021/12/15 08:14:51;;;;;;;64.17;34.17;;;;;;;2.09;97.91;101334.09;6299038;28;20043;-73
2021/12/15 08:17:52;;;;;;;58.78;31.85;;;;;;;2.11;98.26;101332.34;6297567;28;20459;-74
2021/12/15 08:20:53;;;;;;;58.65;32.80;;;;;;;2.43;96.04;101336.47;6297512;28;20040;-74
2021/12/15 08:23:54;;;;;;;62.85;34.15;;;;;;;2.65;94.49;101336.31;6297491;28;20059;-74
2021/12/15 08:26:54;;;;;;;63.67;34.55;;;;;;;2.76;92.30;101344.78;6280848;28;20045;-74
2021/12/15 08:29:55;;;;;;;61.03;33.38;;;;;;;2.90;91.08;101340.38;6298613;28;20041;-74
2021/12/15 08:32:59;;;;;;;67.90;35.13;;;;;;;2.94;90.90;101349.78;6280928;28;20041;-74
2021/12/15 08:36:10;;;;;;;57.95;32.40;;;;;;;3.07;89.96;101355.72;6298192;28;20135;-74
2021/12/15 08:39:10;;;;;;;58.10;33.10;;;;;;;2.80;89.94;101356.78;6297423;28;20040;-74
2021/12/15 08:42:12;;;;;;;60.47;33.28;;;;;;;2.83;90.29;101349.88;6298374;28;20075;-74
2021/12/15 08:45:14;;;;;;;63.78;35.40;;;;;;;2.57;91.16;101362.13;6297091;28;20044;-73
2021/12/15 08:48:15;;;;;;;69.45;36.28;;;;;;;2.48;92.24;101357.03;6296882;28;20478;-73
2021/12/15 08:51:20;;;;;;;67.22;33.90;;;;;;;2.73;90.43;101362.88;6296971;28;20039;-74
2021/12/15 08:54:22;;;;;;;65.20;34.42;;;;;;;2.71;90.02;101362.03;6297994;28;20418;-74
2021/12/15 08:57:24;;;;;;;71.65;36.85;;;;;;;2.85;90.42;101362.78;6280152;28;20044;-73
2021/12/15 09:00:26;;;;;;;71.13;38.05;;;;;;;2.83;89.97;101360.19;6297807;28;20048;-73
2021/12/15 09:03:28;;;;;;;75.30;40.47;;;;;;;2.68;91.08;101364.59;6296847;28;20060;-73
2021/12/15 09:06:29;;;;;;;85.50;43.17;;;;;;;2.75;90.47;101368.88;6296596;28;20048;-73
2021/12/15 09:09:30;;;;;;;79.40;41.28;;;;;;;3.04;89.79;101371.19;6296428;28;20040;-74
2021/12/15 09:12:31;;;;;;;78.15;39.80;;;;;;;2.99;89.29;101362.66;6296557;28;20091;-75
2021/12/15 09:15:33;;;;;;;70.88;38.42;;;;;;;3.28;88.20;101354.66;6296293;28;20044;-73
2021/12/15 09:18:35;;;;;;;69.25;38.80;;;;;;;3.41;87.26;101357.94;6297492;28;20044;-75
2021/12/15 09:21:37;;;;;;;67.15;37.00;;;;;;;3.37;85.74;101357.13;6292283;28;20041;-74
2021/12/15 09:24:38;;;;;;;58.78;34.65;;;;;;;3.49;86.22;101357.88;6286391;28;20037;-73
2021/12/15 09:27:40;;;;;;;57.13;29.42;;;;;;;3.56;86.59;101355.22;6273969;28;20551;-74
2021/12/15 09:30:46;;;;;;;54.50;31.08;;;;;;;3.87;82.94;101347.13;6283445;28;20037;-74
2021/12/15 09:33:50;;;;;;;56.65;29.30;;;;;;;3.79;83.43;101341.19;6281490;28;20442;-74
2021/12/15 09:36:55;;;;;;;58.85;29.27;;;;;;;3.47;84.17;101334.66;6284128;28;20068;-75
2021/12/15 09:39:57;;;;;;;53.60;30.27;;;;;;;3.79;83.64;101330.84;6282943;28;20052;-74
2021/12/15 09:42:57;;;;;;;50.08;28.27;;;;;;;3.54;85.14;101335.44;6281530;28;20063;-74
2021/12/15 09:46:05;;;;;;;49.58;26.98;;;;;;;3.87;84.32;101334.19;6278749;28;20487;-75
2021/12/15 10:18:56;;;;;;;42.40;22.38;;;;;;;3.89;86.83;101323.81;6287909;28;20037;-73
2021/12/15 10:22:06;;;;;;;40.75;21.88;;;;;;;4.00;86.96;101324.56;6279265;28;20494;-75
2021/12/15 10:25:09;;;;;;;40.00;21.50;;;;;;;4.05;86.64;101327.91;6296264;28;20044;-75
2021/12/15 10:28:18;;;;;;;37.97;20.27;;;;;;;3.74;87.72;101327.47;6280907;28;20491;-74
2021/12/15 10:31:22;;;;;;;40.17;21.20;;;;;;;3.69;87.73;101326.69;6270044;28;20476;-74
2021/12/15 10:34:23;;;;;;;49.45;27.13;;;;;;;3.63;87.95;101323.28;6269866;28;20041;-74
2021/12/15 10:37:24;;;;;;;49.45;26.58;;;;;;;3.48;89.01;101333.81;6270820;28;20049;-74
2021/12/15 10:40:25;;;;;;;50.28;28.60;;;;;;;3.35;91.65;101337.38;6270279;28;20565;-74
2021/12/15 10:44:04;;;;;;;55.33;28.38;;;;;;;3.31;93.08;101333.13;6253412;28;20051;-74
2021/12/15 10:47:06;;;;;;;47.97;27.23;;;;;;;3.12;94.27;101335.03;6269887;28;20462;-74
2021/12/15 10:50:11;;;;;;;;;;;;;;;3.42;94.21;101339.88;6245963;28;20040;-74
2021/12/15 10:53:12;;;;;;;53.60;27.83;;;;;;;3.26;93.94;101346.06;6294689;28;19970;-75
2021/12/15 10:56:19;;;;;;;57.50;27.70;;;;;;;3.26;93.91;101338.34;6295897;28;20463;-74
2021/12/15 10:59:22;;;;;;;50.75;27.17;;;;;;;3.46;93.89;101337.25;6295708;28;20044;-74
2021/12/15 11:02:32;;;;;;;50.70;28.02;;;;;;;3.50;94.41;101333.75;6294702;28;20137;-74
2021/12/15 11:05:33;;;;;;;54.85;25.17;;;;;;;3.38;93.58;101345.09;6270879;28;20503;-74
2021/12/15 11:08:35;;;;;;;47.30;26.88;;;;;;;3.40;94.34;101336.47;6312968;28;20079;-75
2021/12/15 11:11:36;;;;;;;54.55;28.65;;;;;;;3.02;96.16;101327.38;6253331;28;20037;-75
2021/12/15 11:14:41;;;;;;;52.03;27.88;;;;;;;3.28;95.11;101320.25;6270904;28;20090;-74
2021/12/15 11:17:57;;;;;;;52.47;26.42;;;;;;;3.44;93.41;101319.22;6275302;28;20033;-74
2021/12/15 11:21:05;;;;;;;47.63;26.92;;;;;;;3.07;93.93;101317.03;6274482;28;20451;-74
2021/12/15 11:24:11;;;;;;;50.70;27.92;;;;;;;3.04;96.30;101317.03;6278065;28;20041;-74
2021/12/15 11:27:17;;;;;;;49.13;26.05;;;;;;;3.11;96.61;101320.41;6286288;28;20067;-74
2021/12/15 11:30:34;;;;;;;51.55;27.70;;;;;;;2.98;97.07;101317.94;6280601;28;20041;-74
2021/12/15 11:33:50;;;;;;;56.83;29.88;;;;;;;2.97;96.40;101321.41;6274217;28;20377;-75
2021/12/15 11:36:52;;;;;;;58.35;31.10;;;;;;;3.00;98.25;101317.94;6273562;28;20079;-74
2021/12/15 11:40:02;;;;;;;64.53;32.30;;;;;;;3.20;96.37;101320.34;6273955;28;20045;-74
2021/12/15 11:43:05;;;;;;;57.30;30.10;;;;;;;3.14;97.25;101321.25;6275171;28;20041;-74
2021/12/15 11:46:23;;;;;;;57.85;30.48;;;;;;;3.30;95.19;101323.69;6273899;28;20400;-74
2021/12/15 11:49:27;;;;;;;53.97;31.05;;;;;;;3.21;95.57;101314.28;6285569;28;20048;-74
2021/12/15 11:52:40;;;;;;;62.60;32.50;;;;;;;3.27;94.06;101306.47;6298582;28;20049;-75
2021/12/15 11:55:44;;;;;;;61.15;33.70;;;;;;;3.09;95.57;101310.13;6299470;28;20101;-74
2021/12/15 11:58:47;;;;;;;57.65;32.80;;;;;;;3.08;97.48;101312.72;6271139;28;20041;-74
2021/12/15 12:01:56;;;;;;;59.78;30.17;;;;;;;3.21;93.90;101304.84;6284641;28;20070;-74
2021/12/15 12:05:04;;;;;;;60.88;31.52;;;;;;;3.15;95.28;101306.63;6299484;28;20047;-74
2021/12/15 12:08:10;;;;;;;57.05;29.75;;;;;;;2.99;95.93;101313.69;6278286;28;20045;-75
2021/12/15 12:11:15;;;;;;;59.95;31.20;;;;;;;3.07;94.75;101306.72;6274475;28;20045;-75
2021/12/15 12:14:29;;;;;;;59.10;30.73;;;;;;;3.09;93.12;101307.56;6273464;28;20391;-74
2021/12/15 12:17:36;;;;;;;58.85;29.27;;;;;;;3.07;93.29;101314.44;6296234;28;20047;-75
2021/12/15 12:20:42;;;;;;;60.88;31.70;;;;;;;3.46;93.03;101311.44;6274147;28;20484;-75
2021/12/15 12:23:45;;;;;;;56.78;30.55;;;;;;;3.40;92.20;101300.34;6273101;28;20045;-73
2021/12/15 12:26:46;;;;;;;63.53;30.50;;;;;;;3.35;93.04;101303.84;6280862;28;20056;-74
2021/12/15 12:29:47;;;;;;;55.90;30.98;;;;;;;3.33;93.74;101308.16;6298528;28;20403;-76
2021/12/15 12:32:49;;;;;;;62.70;32.30;;;;;;;3.43;92.23;101307.19;6297610;28;20045;-72
2021/12/15 12:35:54;;;;;;;58.80;31.48;;;;;;;3.25;93.06;101300.50;6298372;28;20080;-72
2021/12/15 12:39:00;;;;;;;58.60;31.88;;;;;;;3.43;92.83;101300.28;6298687;28;20036;-72
2021/12/15 12:42:01;;;;;;;60.10;32.05;;;;;;;3.36;92.34;101287.50;6281980;28;20045;-73
2021/12/15 12:45:19;;;;;;;51.28;29.35;;;;;;;3.15;93.71;101289.44;6284946;28;20040;-73
2021/12/15 13:01:41;;;;;;;59.75;31.35;;;;;;;3.05;97.01;101285.25;6273535;28;20044;-73
2021/12/15 13:04:44;;;;;;;55.58;31.02;;;;;;;3.19;96.72;101293.69;6273041;28;20049;-75
2021/12/15 13:07:53;;;;;;;53.08;31.77;;;;;;;3.30;97.23;101287.56;6273044;28;20079;-75
2021/12/15 13:10:57;;;;;;;48.85;28.90;;;;;;;3.15;97.35;101291.13;6272769;28;20071;-73
2021/12/15 13:14:15;;;;;;;55.50;30.10;;;;;;;3.27;97.03;101292.75;6272974;28;20371;-73
2021/12/15 13:17:23;;;;;;;56.25;30.83;;;;;;;3.22;98.35;101301.38;6272460;28;20045;-71
2021/12/15 13:20:27;;;;;;;59.65;33.30;;;;;;;3.25;98.47;101304.81;6272914;28;20044;-72
2021/12/15 13:23:45;;;;;;;65.97;36.22;;;;;;;3.26;97.78;101296.22;6272390;28;20037;-72
2021/12/15 13:30:33;;;;;;;59.67;31.42;;;;;;;3.27;98.23;101288.44;6272447;28;20048;-72
2021/12/15 13:33:34;;;;;;;52.97;27.45;;;;;;;3.14;97.78;101279.13;6271094;28;20392;-73
2021/12/15 13:36:43;;;;;;;48.83;27.00;;;;;;;3.21;97.49;101289.38;6271937;28;20056;-73
2021/12/15 13:39:49;;;;;;;53.42;26.33;;;;;;;3.02;97.50;101283.53;6272154;28;20041;-73
2021/12/15 13:43:02;;;;;;;49.28;26.08;;;;;;;3.11;97.06;101285.19;6271384;28;20605;-72
2021/12/15 13:46:03;;;;;;;;;;;;;;;3.07;95.92;101280.94;6272372;28;20052;-73
2021/12/15 13:49:20;;;;;;;48.10;26.13;;;;;;;3.13;95.07;101280.88;6271952;28;19924;-73
2021/12/15 13:52:29;;;;;;;49.03;27.27;;;;;;;3.10;93.99;101286.03;6272393;28;20115;-73
2021/12/15 13:55:39;;;;;;;50.17;24.77;;;;;;;3.16;94.65;101292.88;6271955;28;20051;-72
2021/12/15 13:58:40;;;;;;;43.92;23.23;;;;;;;2.93;96.02;101301.69;6271592;28;20045;-73
2021/12/15 14:01:40;;;;;;;43.10;22.63;;;;;;;2.96;94.44;101296.47;6270504;28;20472;-72
2021/12/15 14:04:57;;;;;;;53.40;26.45;;;;;;;3.01;95.03;101302.47;6271622;28;20090;-73
2021/12/15 14:08:02;;;;;;;63.42;32.45;;;;;;;2.85;95.43;101308.63;6271655;28;20094;-73
2021/12/15 14:11:07;;;;;;;51.60;27.75;;;;;;;2.85;95.54;101308.63;6271420;28;20068;-73
2021/12/15 14:14:22;;;;;;;43.83;24.55;;;;;;;2.97;95.97;101305.09;6270122;28;20499;-72
2021/12/15 14:17:23;;;;;;;40.75;20.75;;;;;;;2.80;96.46;101300.06;6303637;28;20151;-73
2021/12/15 14:20:24;;;;;;;43.42;21.25;;;;;;;2.93;95.42;101306.84;6270171;28;20056;-72
2021/12/15 14:23:29;;;;;;;39.85;22.58;;;;;;;2.96;96.58;101313.69;6270066;28;20041;-72
2021/12/15 14:26:33;;;;;;;47.60;22.63;;;;;;;2.93;96.58;101317.16;6270157;28;20045;-72
2021/12/15 14:29:35;;;;;;;46.90;26.35;;;;;;;2.91;97.81;101313.75;6270035;28;20495;-72
2021/12/15 14:32:35;;;;;;;50.25;26.23;;;;;;;2.84;98.20;101309.50;6271123;28;20536;-73
2021/12/15 14:35:36;;;;;;;44.03;24.58;;;;;;;2.88;98.58;101308.59;6269957;28;20045;-72
2021/12/15 14:38:46;;;;;;;55.10;27.33;;;;;;;2.90;99.11;101309.44;6271090;28;20083;-73
2021/12/15 14:42:00;;;;;;;49.90;27.85;;;;;;;2.74;99.77;101305.28;6270984;28;20041;-72
2021/12/15 14:45:04;;;;;;;54.25;29.10;;;;;;;2.90;99.89;101309.44;6269825;28;20468;-73
2021/12/15 14:48:19;;;;;;;55.03;30.55;;;;;;;2.90;99.40;101308.59;6269854;28;20045;-73
2021/12/15 14:51:21;;;;;;;91.93;44.10;;;;;;;2.95;98.92;101304.25;6269591;28;20052;-72
2021/12/15 14:54:24;;;;;;;114.15;53.78;;;;;;;2.95;99.38;101299.94;6274698;28;20041;-72
2021/12/15 14:57:28;;;;;;;71.82;37.78;;;;;;;2.90;99.56;101303.44;6308124;28;20048;-72
2021/12/15 15:00:35;;;;;;;63.88;32.20;;;;;;;2.75;100.00;101304.44;6275873;28;20106;-72
2021/12/15 15:03:36;;;;;;;69.78;34.70;;;;;;;2.73;100.00;101304.44;6275899;28;20491;-72
2021/12/15 15:06:37;;;;;;;114.78;54.63;;;;;;;2.76;100.00;101309.59;6258228;28;20057;-72
2021/12/15 15:09:41;;;;;;;113.05;50.33;;;;;;;2.79;100.00;101313.84;6275770;28;20124;-72
2021/12/15 15:12:44;;;;;;;92.03;45.35;;;;;;;2.83;100.00;101318.94;6274514;28;20041;-72
2021/12/15 15:15:50;;;;;;;73.72;35.47;;;;;;;2.87;100.00;101324.09;6257677;28;20053;-72
2021/12/15 15:18:51;;;;;;;83.72;38.60;;;;;;;2.89;100.00;101323.22;6274312;28;20496;-72
2021/12/15 15:21:53;;;;;;;114.00;48.38;;;;;;;2.87;100.00;101324.94;6257551;28;20093;-73
2021/12/15 15:24:55;;;;;;;67.88;33.85;;;;;;;2.78;100.00;101331.03;6274214;28;20041;-73
2021/12/15 15:28:04;;;;;;;67.93;31.92;;;;;;;2.72;100.00;101340.53;6275400;28;20514;-73
2021/12/15 15:31:10;;;;;;;58.38;30.90;;;;;;;2.73;100.00;101344.81;6275151;28;20049;-72